sensor_id;sensor_type;location;lat;lon;timestamp;pressure;altitude;pressure_sealevel;temperature;humidity
18918;BME280;9591;52.742;13.650;2023-08-06T00:00:13;100286.63;;;32.66;40.68
18918;BME280;9591;52.742;13.650;2023-08-06T00:03:00;100275.28;;;32.75;40.46
18918;BME280;9591;52.742;13.650;2023-08-06T00:05:47;100279.13;;;32.81;40.21
18918;BME280;9591;52.742;13.650;2023-08-06T00:08:34;100285.69;;;32.52;40.57
18918;BME280;9591;52.742;13.650;2023-08-06T00:11:22;100283.22;;;32.64;40.67
18918;BME280;9591;52.742;13.650;2023-08-06T00:14:08;100288.06;;;32.62;40.79
18918;BME280;9591;52.742;13.650;2023-08-06T00:16:57;100287.16;;;32.82;40.63
18918;BME280;9591;52.742;13.650;2023-08-06T00:19:44;100291.47;;;32.64;41.15
18918;BME280;9591;52.742;13.650;2023-08-06T00:22:31;100284.03;;;32.92;40.43
18918;BME280;9591;52.742;13.650;2023-08-06T00:25:18;100280.44;;;32.92;40.10
18918;BME280;9591;52.742;13.650;2023-08-06T00:28:05;100270.00;;;33.28;39.61
18918;BME280;9591;52.742;13.650;2023-08-06T00:30:57;100261.59;;;33.82;38.59
18918;BME280;9591;52.742;13.650;2023-08-06T00:33:48;100258.84;;;33.43;39.17
18918;BME280;9591;52.742;13.650;2023-08-06T00:36:36;100252.41;;;33.16;39.80
18918;BME280;9591;52.742;13.650;2023-08-06T00:39:23;100254.22;;;32.76;40.47
18918;BME280;9591;52.742;13.650;2023-08-06T00:42:12;100256.38;;;33.00;40.14
18918;BME280;9591;52.742;13.650;2023-08-06T00:45:00;100253.22;;;33.03;40.13
18918;BME280;9591;52.742;13.650;2023-08-06T00:47:49;100247.94;;;32.95;40.28
18918;BME280;9591;52.742;13.650;2023-08-06T00:50:39;100246.03;;;32.82;40.62
18918;BME280;9591;52.742;13.650;2023-08-06T00:53:26;100246.66;;;32.84;40.71
18918;BME280;9591;52.742;13.650;2023-08-06T00:56:12;100235.53;;;33.12;40.13
18918;BME280;9591;52.742;13.650;2023-08-06T00:59:00;100246.06;;;32.89;40.69
18918;BME280;9591;52.742;13.650;2023-08-06T01:01:47;100248.00;;;32.61;41.34
18918;BME280;9591;52.742;13.650;2023-08-06T01:04:36;100239.84;;;33.61;39.29
18918;BME280;9591;52.742;13.650;2023-08-06T01:07:36;100231.31;;;33.16;40.01
18918;BME280;9591;52.742;13.650;2023-08-06T01:10:39;100237.84;;;33.02;40.33
18918;BME280;9591;52.742;13.650;2023-08-06T01:13:33;100235.94;;;32.89;40.88
18918;BME280;9591;52.742;13.650;2023-08-06T01:16:25;100239.53;;;33.10;40.41
18918;BME280;9591;52.742;13.650;2023-08-06T01:19:16;100234.97;;;33.37;39.59
18918;BME280;9591;52.742;13.650;2023-08-06T01:22:05;100234.69;;;33.12;40.36
18918;BME280;9591;52.742;13.650;2023-08-06T01:24:52;100237.84;;;33.09;40.29
18918;BME280;9591;52.742;13.650;2023-08-06T01:27:46;100233.22;;;33.09;40.23
18918;BME280;9591;52.742;13.650;2023-08-06T01:30:35;100232.25;;;32.69;41.46
18918;BME280;9591;52.742;13.650;2023-08-06T01:33:27;100206.41;;;32.92;40.59
18918;BME280;9591;52.742;13.650;2023-08-06T01:36:19;100215.59;;;32.71;41.33
18918;BME280;9591;52.742;13.650;2023-08-06T01:39:08;100217.88;;;32.67;40.85
18918;BME280;9591;52.742;13.650;2023-08-06T01:41:55;100208.94;;;32.45;41.60
18918;BME280;9591;52.742;13.650;2023-08-06T01:44:42;100215.97;;;32.61;41.32
18918;BME280;9591;52.742;13.650;2023-08-06T01:47:29;100217.94;;;32.33;42.25
18918;BME280;9591;52.742;13.650;2023-08-06T01:50:16;100217.34;;;32.98;40.76
18918;BME280;9591;52.742;13.650;2023-08-06T01:53:03;100209.13;;;32.98;40.58
18918;BME280;9591;52.742;13.650;2023-08-06T01:55:51;100205.34;;;32.99;40.72
18918;BME280;9591;52.742;13.650;2023-08-06T01:58:38;100211.03;;;32.98;40.60
18918;BME280;9591;52.742;13.650;2023-08-06T02:01:25;100203.25;;;33.08;40.49
18918;BME280;9591;52.742;13.650;2023-08-06T02:04:12;100197.72;;;32.95;40.74
18918;BME280;9591;52.742;13.650;2023-08-06T02:07:00;100191.44;;;33.14;40.49
18918;BME280;9591;52.742;13.650;2023-08-06T02:09:46;100187.00;;;32.86;40.92
18918;BME280;9591;52.742;13.650;2023-08-06T02:12:35;100174.19;;;32.52;41.66
18918;BME280;9591;52.742;13.650;2023-08-06T02:15:22;100181.84;;;32.70;41.57
18918;BME280;9591;52.742;13.650;2023-08-06T02:18:09;100181.22;;;32.75;41.10
18918;BME280;9591;52.742;13.650;2023-08-06T02:20:57;100173.28;;;33.00;40.77
18918;BME280;9591;52.742;13.650;2023-08-06T02:23:44;100166.72;;;32.94;41.08
18918;BME280;9591;52.742;13.650;2023-08-06T02:26:31;100160.94;;;32.63;41.49
18918;BME280;9591;52.742;13.650;2023-08-06T02:29:19;100156.84;;;32.93;41.33
18918;BME280;9591;52.742;13.650;2023-08-06T02:32:07;100155.13;;;33.05;41.10
18918;BME280;9591;52.742;13.650;2023-08-06T02:34:54;100150.94;;;33.16;40.86
18918;BME280;9591;52.742;13.650;2023-08-06T02:37:40;100151.25;;;32.67;41.87
18918;BME280;9591;52.742;13.650;2023-08-06T02:40:27;100153.97;;;32.53;42.12
18918;BME280;9591;52.742;13.650;2023-08-06T02:43:14;100149.88;;;32.84;41.60
18918;BME280;9591;52.742;13.650;2023-08-06T02:46:03;100151.25;;;32.67;41.54
18918;BME280;9591;52.742;13.650;2023-08-06T02:48:49;100146.41;;;32.69;41.77
18918;BME280;9591;52.742;13.650;2023-08-06T02:51:36;100139.44;;;32.59;41.88
18918;BME280;9591;52.742;13.650;2023-08-06T02:54:23;100144.28;;;32.57;41.78
18918;BME280;9591;52.742;13.650;2023-08-06T02:57:12;100132.50;;;32.64;41.91
18918;BME280;9591;52.742;13.650;2023-08-06T03:00:07;100130.59;;;32.64;41.95
18918;BME280;9591;52.742;13.650;2023-08-06T03:02:59;100134.69;;;32.88;41.07
18918;BME280;9591;52.742;13.650;2023-08-06T03:06:06;100132.84;;;32.41;42.35
18918;BME280;9591;52.742;13.650;2023-08-06T03:09:04;100131.41;;;32.10;43.00
18918;BME280;9591;52.742;13.650;2023-08-06T03:11:51;100135.41;;;32.08;43.46
18918;BME280;9591;52.742;13.650;2023-08-06T03:14:39;100131.69;;;32.22;43.32
18918;BME280;9591;52.742;13.650;2023-08-06T03:17:26;100130.94;;;32.41;42.85
18918;BME280;9591;52.742;13.650;2023-08-06T03:20:14;100128.19;;;32.41;42.57
18918;BME280;9591;52.742;13.650;2023-08-06T03:23:01;100129.34;;;32.19;42.97
18918;BME280;9591;52.742;13.650;2023-08-06T03:25:49;100123.81;;;32.53;41.93
18918;BME280;9591;52.742;13.650;2023-08-06T03:28:37;100112.47;;;32.70;41.65
18918;BME280;9591;52.742;13.650;2023-08-06T03:31:24;100117.53;;;32.73;41.69
18918;BME280;9591;52.742;13.650;2023-08-06T03:34:11;100107.91;;;32.90;41.20
18918;BME280;9591;52.742;13.650;2023-08-06T03:37:00;100109.56;;;33.17;40.57
18918;BME280;9591;52.742;13.650;2023-08-06T03:39:47;100100.25;;;32.72;41.28
18918;BME280;9591;52.742;13.650;2023-08-06T03:42:33;100094.78;;;32.18;42.55
18918;BME280;9591;52.742;13.650;2023-08-06T03:45:20;100087.22;;;33.20;39.88
18918;BME280;9591;52.742;13.650;2023-08-06T03:48:07;100076.03;;;33.02;40.28
18918;BME280;9591;52.742;13.650;2023-08-06T03:50:55;100075.38;;;33.53;39.23
18918;BME280;9591;52.742;13.650;2023-08-06T03:53:45;100064.63;;;33.05;40.08
18918;BME280;9591;52.742;13.650;2023-08-06T03:56:32;100064.81;;;32.71;40.95
18918;BME280;9591;52.742;13.650;2023-08-06T03:59:19;100068.00;;;32.74;41.25
18918;BME280;9591;52.742;13.650;2023-08-06T04:02:06;100064.84;;;32.97;40.79
18918;BME280;9591;52.742;13.650;2023-08-06T04:04:53;100072.44;;;32.95;40.57
18918;BME280;9591;52.742;13.650;2023-08-06T04:07:40;100057.25;;;33.39;39.57
18918;BME280;9591;52.742;13.650;2023-08-06T04:10:28;100043.31;;;33.14;40.43
18918;BME280;9591;52.742;13.650;2023-08-06T04:13:15;100050.50;;;33.02;40.25
18918;BME280;9591;52.742;13.650;2023-08-06T04:16:02;100058.06;;;32.60;41.09
18918;BME280;9591;52.742;13.650;2023-08-06T04:18:50;100046.09;;;32.87;40.73
18918;BME280;9591;52.742;13.650;2023-08-06T04:21:38;100044.16;;;33.14;40.01
18918;BME280;9591;52.742;13.650;2023-08-06T04:24:25;100039.53;;;33.15;39.47
18918;BME280;9591;52.742;13.650;2023-08-06T04:27:14;100044.59;;;32.72;40.47
18918;BME280;9591;52.742;13.650;2023-08-06T04:30:02;100032.78;;;32.65;41.22
18918;BME280;9591;52.742;13.650;2023-08-06T04:32:56;100028.59;;;32.88;40.66
18918;BME280;9591;52.742;13.650;2023-08-06T04:35:44;100021.78;;;33.44;39.46
18918;BME280;9591;52.742;13.650;2023-08-06T04:38:31;100031.19;;;33.81;38.86
18918;BME280;9591;52.742;13.650;2023-08-06T04:41:18;100018.53;;;33.73;38.82
18918;BME280;9591;52.742;13.650;2023-08-06T04:44:06;99963.47;;;33.62;38.52
18918;BME280;9591;52.742;13.650;2023-08-06T04:46:53;100020.41;;;33.79;38.43
18918;BME280;9591;52.742;13.650;2023-08-06T04:49:40;100010.91;;;33.82;38.30
18918;BME280;9591;52.742;13.650;2023-08-06T04:52:27;100008.78;;;33.84;38.05
18918;BME280;9591;52.742;13.650;2023-08-06T04:55:14;100009.72;;;33.58;38.60
18918;BME280;9591;52.742;13.650;2023-08-06T04:58:01;100009.25;;;33.74;38.54
18918;BME280;9591;52.742;13.650;2023-08-06T05:00:49;100006.97;;;34.09;37.78
18918;BME280;9591;52.742;13.650;2023-08-06T05:03:36;100001.75;;;33.95;38.11
18918;BME280;9591;52.742;13.650;2023-08-06T05:06:24;100005.44;;;33.75;38.65
18918;BME280;9591;52.742;13.650;2023-08-06T05:09:11;100002.31;;;34.10;37.91
18918;BME280;9591;52.742;13.650;2023-08-06T05:12:00;100001.31;;;33.98;37.75
18918;BME280;9591;52.742;13.650;2023-08-06T05:14:47;99996.72;;;33.85;38.35
18918;BME280;9591;52.742;13.650;2023-08-06T05:17:39;100001.69;;;34.08;37.92
18918;BME280;9591;52.742;13.650;2023-08-06T05:20:27;99995.97;;;33.65;38.66
18918;BME280;9591;52.742;13.650;2023-08-06T05:23:14;99996.75;;;33.78;38.81
18918;BME280;9591;52.742;13.650;2023-08-06T05:26:02;99993.00;;;33.66;38.78
18918;BME280;9591;52.742;13.650;2023-08-06T05:28:50;99989.84;;;34.07;37.98
18918;BME280;9591;52.742;13.650;2023-08-06T05:31:38;99984.81;;;34.42;37.47
18918;BME280;9591;52.742;13.650;2023-08-06T05:34:26;99983.34;;;34.40;37.16
18918;BME280;9591;52.742;13.650;2023-08-06T05:37:14;99978.38;;;33.79;38.20
18918;BME280;9591;52.742;13.650;2023-08-06T05:40:01;99981.94;;;33.86;38.05
18918;BME280;9591;52.742;13.650;2023-08-06T05:42:49;99970.56;;;33.82;38.09
18918;BME280;9591;52.742;13.650;2023-08-06T05:45:36;99973.84;;;33.98;38.08
18918;BME280;9591;52.742;13.650;2023-08-06T05:48:24;99969.91;;;34.81;36.82
18918;BME280;9591;52.742;13.650;2023-08-06T05:51:13;99970.28;;;34.35;37.64
18918;BME280;9591;52.742;13.650;2023-08-06T05:54:01;99965.09;;;34.70;37.13
18918;BME280;9591;52.742;13.650;2023-08-06T05:56:49;99974.22;;;34.46;37.39
18918;BME280;9591;52.742;13.650;2023-08-06T05:59:36;99973.97;;;34.72;37.03
18918;BME280;9591;52.742;13.650;2023-08-06T06:02:23;99976.31;;;34.69;36.94
18918;BME280;9591;52.742;13.650;2023-08-06T06:05:10;99968.41;;;34.79;36.99
18918;BME280;9591;52.742;13.650;2023-08-06T06:07:59;99937.63;;;34.95;36.32
18918;BME280;9591;52.742;13.650;2023-08-06T06:10:47;99962.31;;;35.75;35.36
18918;BME280;9591;52.742;13.650;2023-08-06T06:13:34;99956.75;;;35.82;35.06
18918;BME280;9591;52.742;13.650;2023-08-06T06:16:23;99953.25;;;35.56;35.38
18918;BME280;9591;52.742;13.650;2023-08-06T06:19:13;99949.09;;;35.65;34.88
18918;BME280;9591;52.742;13.650;2023-08-06T06:22:02;99957.06;;;35.19;35.78
18918;BME280;9591;52.742;13.650;2023-08-06T06:24:54;99949.53;;;35.32;35.89
18918;BME280;9591;52.742;13.650;2023-08-06T06:27:42;99942.59;;;35.05;35.91
18918;BME280;9591;52.742;13.650;2023-08-06T06:30:29;99937.63;;;34.95;36.43
18918;BME280;9591;52.742;13.650;2023-08-06T06:33:16;99934.66;;;35.15;36.32
18918;BME280;9591;52.742;13.650;2023-08-06T06:36:04;99938.31;;;35.09;36.10
18918;BME280;9591;52.742;13.650;2023-08-06T06:38:53;99934.13;;;35.06;36.60
18918;BME280;9591;52.742;13.650;2023-08-06T06:41:41;99917.13;;;35.64;35.49
18918;BME280;9591;52.742;13.650;2023-08-06T06:44:41;99923.50;;;36.25;34.02
18918;BME280;9591;52.742;13.650;2023-08-06T06:47:38;99933.72;;;35.76;34.73
18918;BME280;9591;52.742;13.650;2023-08-06T06:50:25;99927.06;;;35.84;34.64
18918;BME280;9591;52.742;13.650;2023-08-06T06:53:18;99930.25;;;35.99;34.99
18918;BME280;9591;52.742;13.650;2023-08-06T06:56:06;99931.75;;;35.83;35.00
18918;BME280;9591;52.742;13.650;2023-08-06T06:58:55;99920.47;;;35.36;36.01
18918;BME280;9591;52.742;13.650;2023-08-06T07:01:42;99929.22;;;35.63;35.32
18918;BME280;9591;52.742;13.650;2023-08-06T07:04:29;99922.50;;;35.59;35.46
18918;BME280;9591;52.742;13.650;2023-08-06T07:07:16;99927.69;;;35.86;35.21
18918;BME280;9591;52.742;13.650;2023-08-06T07:10:03;99931.22;;;35.56;35.63
18918;BME280;9591;52.742;13.650;2023-08-06T07:12:51;99932.41;;;35.78;35.08
18918;BME280;9591;52.742;13.650;2023-08-06T07:15:39;99926.63;;;34.95;36.47
18918;BME280;9591;52.742;13.650;2023-08-06T07:18:26;99921.25;;;35.73;35.35
18918;BME280;9591;52.742;13.650;2023-08-06T07:21:13;99926.59;;;36.17;34.82
18918;BME280;9591;52.742;13.650;2023-08-06T07:24:00;99922.44;;;35.96;35.30
18918;BME280;9591;52.742;13.650;2023-08-06T07:26:49;99930.63;;;36.32;34.56
18918;BME280;9591;52.742;13.650;2023-08-06T07:29:37;99936.97;;;36.33;34.61
18918;BME280;9591;52.742;13.650;2023-08-06T07:32:26;99931.34;;;36.51;34.25
18918;BME280;9591;52.742;13.650;2023-08-06T07:35:13;99930.28;;;36.10;35.02
18918;BME280;9591;52.742;13.650;2023-08-06T07:38:01;99916.88;;;36.79;34.17
18918;BME280;9591;52.742;13.650;2023-08-06T07:40:48;99916.59;;;36.34;33.77
18918;BME280;9591;52.742;13.650;2023-08-06T07:43:35;99909.56;;;36.85;33.48
18918;BME280;9591;52.742;13.650;2023-08-06T07:46:23;99918.66;;;36.62;34.18
18918;BME280;9591;52.742;13.650;2023-08-06T07:49:11;99919.53;;;36.97;33.58
18918;BME280;9591;52.742;13.650;2023-08-06T07:52:00;99914.25;;;36.84;33.64
18918;BME280;9591;52.742;13.650;2023-08-06T07:54:48;99917.31;;;36.64;34.07
18918;BME280;9591;52.742;13.650;2023-08-06T07:57:35;99920.38;;;36.21;34.82
18918;BME280;9591;52.742;13.650;2023-08-06T08:00:23;99918.13;;;36.41;34.63
18918;BME280;9591;52.742;13.650;2023-08-06T08:03:10;99914.59;;;36.76;34.12
18918;BME280;9591;52.742;13.650;2023-08-06T08:05:58;99915.22;;;36.25;35.26
18918;BME280;9591;52.742;13.650;2023-08-06T08:08:45;99901.00;;;36.28;34.71
18918;BME280;9591;52.742;13.650;2023-08-06T08:11:33;99901.75;;;36.58;34.54
18918;BME280;9591;52.742;13.650;2023-08-06T08:14:20;99898.63;;;36.31;34.84
18918;BME280;9591;52.742;13.650;2023-08-06T08:17:07;99899.59;;;36.07;35.40
18918;BME280;9591;52.742;13.650;2023-08-06T08:20:03;99889.38;;;36.49;35.16
18918;BME280;9591;52.742;13.650;2023-08-06T08:22:52;99887.59;;;36.66;35.02
18918;BME280;9591;52.742;13.650;2023-08-06T08:25:39;99887.25;;;36.98;34.09
18918;BME280;9591;52.742;13.650;2023-08-06T08:28:26;99882.34;;;36.76;34.40
18918;BME280;9591;52.742;13.650;2023-08-06T08:31:12;99878.34;;;37.19;33.66
18918;BME280;9591;52.742;13.650;2023-08-06T08:34:00;99878.56;;;37.18;33.84
18918;BME280;9591;52.742;13.650;2023-08-06T08:36:46;99884.81;;;36.43;34.22
18918;BME280;9591;52.742;13.650;2023-08-06T08:39:36;99877.28;;;36.27;35.21
18918;BME280;9591;52.742;13.650;2023-08-06T08:42:24;99868.16;;;36.73;34.50
18918;BME280;9591;52.742;13.650;2023-08-06T08:45:13;99867.94;;;36.86;33.84
18918;BME280;9591;52.742;13.650;2023-08-06T08:48:01;99859.19;;;36.89;34.31
18918;BME280;9591;52.742;13.650;2023-08-06T08:50:54;99842.63;;;37.01;33.51
18918;BME280;9591;52.742;13.650;2023-08-06T08:53:46;99858.91;;;37.14;33.33
18918;BME280;9591;52.742;13.650;2023-08-06T08:56:35;99856.09;;;37.66;33.05
18918;BME280;9591;52.742;13.650;2023-08-06T08:59:22;99850.47;;;37.32;32.97
18918;BME280;9591;52.742;13.650;2023-08-06T09:02:11;99842.59;;;37.81;32.55
18918;BME280;9591;52.742;13.650;2023-08-06T09:05:00;99846.78;;;37.55;32.96
18918;BME280;9591;52.742;13.650;2023-08-06T09:07:49;99840.75;;;37.58;33.32
18918;BME280;9591;52.742;13.650;2023-08-06T09:10:41;99836.31;;;37.57;33.32
18918;BME280;9591;52.742;13.650;2023-08-06T09:13:31;99832.91;;;36.98;34.14
18918;BME280;9591;52.742;13.650;2023-08-06T09:16:18;99826.06;;;37.41;33.85
18918;BME280;9591;52.742;13.650;2023-08-06T09:19:08;99825.69;;;36.04;35.60
18918;BME280;9591;52.742;13.650;2023-08-06T09:21:56;99827.81;;;37.19;33.47
18918;BME280;9591;52.742;13.650;2023-08-06T09:24:44;99819.84;;;36.59;34.49
18918;BME280;9591;52.742;13.650;2023-08-06T09:27:32;99824.53;;;36.93;33.98
18918;BME280;9591;52.742;13.650;2023-08-06T09:30:32;99805.22;;;36.70;34.85
18918;BME280;9591;52.742;13.650;2023-08-06T09:33:19;99824.88;;;36.97;34.39
18918;BME280;9591;52.742;13.650;2023-08-06T09:36:10;99821.38;;;37.01;34.82
18918;BME280;9591;52.742;13.650;2023-08-06T09:38:57;99815.31;;;37.28;34.08
18918;BME280;9591;52.742;13.650;2023-08-06T09:41:44;99816.56;;;37.08;34.52
18918;BME280;9591;52.742;13.650;2023-08-06T09:44:33;99795.22;;;36.29;35.33
18918;BME280;9591;52.742;13.650;2023-08-06T09:47:24;99810.88;;;36.52;35.22
18918;BME280;9591;52.742;13.650;2023-08-06T09:50:15;99802.47;;;36.23;35.69
18918;BME280;9591;52.742;13.650;2023-08-06T09:53:02;99807.50;;;36.03;35.49
18918;BME280;9591;52.742;13.650;2023-08-06T09:55:50;99806.78;;;36.19;35.29
18918;BME280;9591;52.742;13.650;2023-08-06T09:58:38;99801.81;;;36.39;34.87
18918;BME280;9591;52.742;13.650;2023-08-06T10:01:27;99791.75;;;35.80;35.95
18918;BME280;9591;52.742;13.650;2023-08-06T10:04:16;99791.34;;;35.76;36.23
18918;BME280;9591;52.742;13.650;2023-08-06T10:07:09;99782.25;;;36.29;35.50
18918;BME280;9591;52.742;13.650;2023-08-06T10:09:56;99786.66;;;36.65;34.33
18918;BME280;9591;52.742;13.650;2023-08-06T10:12:46;99785.25;;;37.15;34.11
18918;BME280;9591;52.742;13.650;2023-08-06T10:15:35;99774.84;;;37.05;34.07
18918;BME280;9591;52.742;13.650;2023-08-06T10:18:25;99774.63;;;36.95;34.33
18918;BME280;9591;52.742;13.650;2023-08-06T10:21:14;99779.38;;;37.39;33.29
18918;BME280;9591;52.742;13.650;2023-08-06T10:24:01;99767.69;;;37.21;33.62
18918;BME280;9591;52.742;13.650;2023-08-06T10:26:49;99768.19;;;37.46;32.94
18918;BME280;9591;52.742;13.650;2023-08-06T10:29:36;99774.34;;;37.36;32.93
18918;BME280;9591;52.742;13.650;2023-08-06T10:32:46;99771.19;;;37.45;32.82
18918;BME280;9591;52.742;13.650;2023-08-06T10:35:37;99752.97;;;37.60;32.74
18918;BME280;9591;52.742;13.650;2023-08-06T10:38:27;99742.91;;;36.57;34.13
18918;BME280;9591;52.742;13.650;2023-08-06T10:41:22;99770.50;;;37.37;33.26
18918;BME280;9591;52.742;13.650;2023-08-06T10:44:11;99769.53;;;37.44;32.62
18918;BME280;9591;52.742;13.650;2023-08-06T10:47:26;99757.44;;;37.04;33.63
18918;BME280;9591;52.742;13.650;2023-08-06T10:50:14;99761.59;;;37.19;33.46
18918;BME280;9591;52.742;13.650;2023-08-06T10:53:05;99761.72;;;37.12;33.17
18918;BME280;9591;52.742;13.650;2023-08-06T10:55:57;99761.22;;;37.72;32.73
18918;BME280;9591;52.742;13.650;2023-08-06T10:58:46;99748.31;;;37.32;33.16
18918;BME280;9591;52.742;13.650;2023-08-06T11:01:33;99747.50;;;37.32;33.43
18918;BME280;9591;52.742;13.650;2023-08-06T11:04:22;99740.53;;;37.29;33.75
18918;BME280;9591;52.742;13.650;2023-08-06T11:07:10;99741.25;;;37.53;33.10
18918;BME280;9591;52.742;13.650;2023-08-06T11:10:01;99737.63;;;37.07;34.17
18918;BME280;9591;52.742;13.650;2023-08-06T11:12:51;99728.16;;;37.32;34.05
18918;BME280;9591;52.742;13.650;2023-08-06T11:15:40;99731.22;;;37.19;33.86
18918;BME280;9591;52.742;13.650;2023-08-06T11:18:28;99734.97;;;37.24;33.79
18918;BME280;9591;52.742;13.650;2023-08-06T11:21:19;99721.88;;;36.28;35.17
18918;BME280;9591;52.742;13.650;2023-08-06T11:24:06;99710.22;;;35.91;35.84
18918;BME280;9591;52.742;13.650;2023-08-06T11:26:54;99716.31;;;37.03;34.30
18918;BME280;9591;52.742;13.650;2023-08-06T11:29:44;99712.94;;;36.61;34.88
18918;BME280;9591;52.742;13.650;2023-08-06T11:32:31;99707.25;;;36.04;36.02
18918;BME280;9591;52.742;13.650;2023-08-06T11:35:19;99703.59;;;36.50;35.48
18918;BME280;9591;52.742;13.650;2023-08-06T11:38:07;99700.97;;;36.95;34.47
18918;BME280;9591;52.742;13.650;2023-08-06T11:40:54;99700.53;;;36.35;35.75
18918;BME280;9591;52.742;13.650;2023-08-06T11:43:45;99700.00;;;37.01;34.46
18918;BME280;9591;52.742;13.650;2023-08-06T11:46:51;99690.69;;;37.19;33.83
18918;BME280;9591;52.742;13.650;2023-08-06T11:49:40;99670.09;;;36.70;34.72
18918;BME280;9591;52.742;13.650;2023-08-06T11:52:29;99686.09;;;37.41;33.66
18918;BME280;9591;52.742;13.650;2023-08-06T11:55:16;99681.28;;;37.03;34.77
18918;BME280;9591;52.742;13.650;2023-08-06T11:58:04;99681.84;;;36.37;35.09
18918;BME280;9591;52.742;13.650;2023-08-06T12:00:51;99677.00;;;36.44;35.27
18918;BME280;9591;52.742;13.650;2023-08-06T12:03:41;99684.78;;;36.99;34.46
18918;BME280;9591;52.742;13.650;2023-08-06T12:06:28;99672.44;;;36.50;35.38
18918;BME280;9591;52.742;13.650;2023-08-06T12:09:15;99664.69;;;35.76;36.35
18918;BME280;9591;52.742;13.650;2023-08-06T12:12:02;99661.59;;;36.31;35.19
18918;BME280;9591;52.742;13.650;2023-08-06T12:14:49;99665.09;;;36.55;34.92
18918;BME280;9591;52.742;13.650;2023-08-06T12:17:37;99663.31;;;37.18;34.19
18918;BME280;9591;52.742;13.650;2023-08-06T12:20:27;99662.59;;;36.94;34.49
18918;BME280;9591;52.742;13.650;2023-08-06T12:23:19;99659.25;;;37.37;34.37
18918;BME280;9591;52.742;13.650;2023-08-06T12:26:06;99662.47;;;37.00;34.47
18918;BME280;9591;52.742;13.650;2023-08-06T12:28:56;99658.28;;;36.58;35.02
18918;BME280;9591;52.742;13.650;2023-08-06T12:31:48;99656.00;;;36.55;34.92
18918;BME280;9591;52.742;13.650;2023-08-06T12:34:35;99654.53;;;37.04;34.23
18918;BME280;9591;52.742;13.650;2023-08-06T12:37:38;99657.31;;;37.21;34.10
18918;BME280;9591;52.742;13.650;2023-08-06T12:40:25;99662.09;;;36.97;34.34
18918;BME280;9591;52.742;13.650;2023-08-06T12:43:22;99658.38;;;37.03;33.85
18918;BME280;9591;52.742;13.650;2023-08-06T12:46:09;99658.22;;;37.09;33.94
18918;BME280;9591;52.742;13.650;2023-08-06T12:48:59;99657.75;;;36.09;35.02
18918;BME280;9591;52.742;13.650;2023-08-06T12:51:46;99616.66;;;37.16;33.43
18918;BME280;9591;52.742;13.650;2023-08-06T12:54:34;99614.16;;;36.29;34.94
18918;BME280;9591;52.742;13.650;2023-08-06T12:57:22;99665.16;;;36.84;34.21
18918;BME280;9591;52.742;13.650;2023-08-06T13:00:09;99662.16;;;36.85;34.27
18918;BME280;9591;52.742;13.650;2023-08-06T13:02:57;99655.38;;;36.64;34.74
18918;BME280;9591;52.742;13.650;2023-08-06T13:05:44;99657.03;;;36.25;35.52
18918;BME280;9591;52.742;13.650;2023-08-06T13:08:31;99653.09;;;35.86;35.43
18918;BME280;9591;52.742;13.650;2023-08-06T13:11:19;99646.75;;;36.09;35.20
18918;BME280;9591;52.742;13.650;2023-08-06T13:14:07;99651.66;;;35.19;36.27
18918;BME280;9591;52.742;13.650;2023-08-06T13:16:54;99656.69;;;35.98;35.76
18918;BME280;9591;52.742;13.650;2023-08-06T13:19:41;99656.16;;;35.55;35.92
18918;BME280;9591;52.742;13.650;2023-08-06T13:22:28;99651.16;;;35.75;35.51
18918;BME280;9591;52.742;13.650;2023-08-06T13:25:15;99652.91;;;34.74;37.23
18918;BME280;9591;52.742;13.650;2023-08-06T13:28:05;99653.00;;;35.81;35.60
18918;BME280;9591;52.742;13.650;2023-08-06T13:30:52;99652.97;;;36.39;34.19
18918;BME280;9591;52.742;13.650;2023-08-06T13:33:39;99652.22;;;35.62;34.98
18918;BME280;9591;52.742;13.650;2023-08-06T13:36:26;99645.91;;;36.20;34.34
18918;BME280;9591;52.742;13.650;2023-08-06T13:39:14;99648.41;;;35.75;35.11
18918;BME280;9591;52.742;13.650;2023-08-06T13:42:02;99642.91;;;35.40;35.80
18918;BME280;9591;52.742;13.650;2023-08-06T13:44:52;99636.94;;;35.90;35.23
18918;BME280;9591;52.742;13.650;2023-08-06T13:47:45;99638.63;;;35.91;35.23
18918;BME280;9591;52.742;13.650;2023-08-06T13:50:32;99646.06;;;36.54;34.06
18918;BME280;9591;52.742;13.650;2023-08-06T13:53:19;99632.31;;;36.82;33.61
18918;BME280;9591;52.742;13.650;2023-08-06T13:56:06;99647.19;;;36.69;34.24
18918;BME280;9591;52.742;13.650;2023-08-06T13:58:55;99648.53;;;36.67;33.87
18918;BME280;9591;52.742;13.650;2023-08-06T14:01:43;99644.34;;;35.77;35.20
18918;BME280;9591;52.742;13.650;2023-08-06T14:04:36;99646.94;;;34.96;36.06
18918;BME280;9591;52.742;13.650;2023-08-06T14:07:23;99649.72;;;35.49;35.35
18918;BME280;9591;52.742;13.650;2023-08-06T14:10:10;99643.41;;;36.07;34.26
18918;BME280;9591;52.742;13.650;2023-08-06T14:12:57;99648.41;;;35.40;34.93
18918;BME280;9591;52.742;13.650;2023-08-06T14:15:55;99648.03;;;35.36;35.07
18918;BME280;9591;52.742;13.650;2023-08-06T14:18:43;99651.25;;;35.03;35.73
18918;BME280;9591;52.742;13.650;2023-08-06T14:21:30;99646.63;;;35.92;34.09
18918;BME280;9591;52.742;13.650;2023-08-06T14:24:17;99646.38;;;36.17;33.29
18918;BME280;9591;52.742;13.650;2023-08-06T14:27:06;99650.06;;;35.64;33.90
18918;BME280;9591;52.742;13.650;2023-08-06T14:29:54;99651.03;;;36.40;33.23
18918;BME280;9591;52.742;13.650;2023-08-06T14:32:41;99652.97;;;35.93;33.53
18918;BME280;9591;52.742;13.650;2023-08-06T14:35:30;99662.41;;;36.84;32.51
18918;BME280;9591;52.742;13.650;2023-08-06T14:38:17;99656.84;;;36.55;32.61
18918;BME280;9591;52.742;13.650;2023-08-06T14:41:04;99659.06;;;36.70;32.43
18918;BME280;9591;52.742;13.650;2023-08-06T14:43:51;99663.16;;;36.79;32.52
18918;BME280;9591;52.742;13.650;2023-08-06T14:46:38;99659.28;;;37.08;32.16
18918;BME280;9591;52.742;13.650;2023-08-06T14:49:25;99655.50;;;36.29;33.07